sensor_id;sensor_type;location;lat;lon;timestamp;pressure;altitude;pressure_sealevel;temperature;humidity
29825;BME280;16713;52.916;12.834;2023-06-22T08:14:42;101430.78;;;22.87;63.99
29825;BME280;16713;52.916;12.834;2023-06-22T08:17:10;101435.31;;;23.31;63.37
29825;BME280;16713;52.916;12.834;2023-06-22T08:19:37;101426.69;;;23.45;61.13
29825;BME280;16713;52.916;12.834;2023-06-22T08:22:04;101426.31;;;23.43;58.26
29825;BME280;16713;52.916;12.834;2023-06-22T08:24:31;101434.88;;;23.59;60.19
29825;BME280;16713;52.916;12.834;2023-06-22T08:26:57;101444.09;;;23.59;59.01
29825;BME280;16713;52.916;12.834;2023-06-22T08:29:24;101449.97;;;23.65;59.44
29825;BME280;16713;52.916;12.834;2023-06-22T08:31:51;101452.78;;;23.65;59.25
29825;BME280;16713;52.916;12.834;2023-06-22T08:34:17;101449.94;;;23.42;57.41
29825;BME280;16713;52.916;12.834;2023-06-22T08:36:48;101467.88;;;23.71;58.98
29825;BME280;16713;52.916;12.834;2023-06-22T08:39:19;101462.63;;;23.73;57.02
29825;BME280;16713;52.916;12.834;2023-06-22T08:41:47;101472.56;;;23.54;57.55
29825;BME280;16713;52.916;12.834;2023-06-22T08:44:17;101479.69;;;23.59;57.13
29825;BME280;16713;52.916;12.834;2023-06-22T08:46:44;101486.22;;;23.75;58.88
29825;BME280;16713;52.916;12.834;2023-06-22T08:49:10;101478.13;;;23.58;56.29
29825;BME280;16713;52.916;12.834;2023-06-22T08:51:37;101481.44;;;23.72;57.02
29825;BME280;16713;52.916;12.834;2023-06-22T08:54:04;101489.31;;;23.81;58.32
29825;BME280;16713;52.916;12.834;2023-06-22T08:56:31;101488.94;;;23.79;56.98
29825;BME280;16713;52.916;12.834;2023-06-22T08:58:58;101492.53;;;23.79;58.55
29825;BME280;16713;52.916;12.834;2023-06-22T09:01:24;101483.44;;;23.75;55.51
29825;BME280;16713;52.916;12.834;2023-06-22T09:03:51;101485.38;;;23.78;54.95
29825;BME280;16713;52.916;12.834;2023-06-22T09:06:22;101493.59;;;23.89;57.77
29825;BME280;16713;52.916;12.834;2023-06-22T09:08:49;101481.34;;;23.79;55.47
29825;BME280;16713;52.916;12.834;2023-06-22T09:11:15;101488.94;;;23.79;56.65
29825;BME280;16713;52.916;12.834;2023-06-22T09:13:42;101483.84;;;23.74;55.71
29825;BME280;16713;52.916;12.834;2023-06-22T09:16:09;101489.94;;;23.69;55.58
29825;BME280;16713;52.916;12.834;2023-06-22T09:18:35;101477.88;;;23.72;56.77
29825;BME280;16713;52.916;12.834;2023-06-22T09:21:17;101483.00;;;23.77;57.03
29825;BME280;16713;52.916;12.834;2023-06-22T09:23:44;101487.47;;;23.71;57.82
29825;BME280;16713;52.916;12.834;2023-06-22T09:26:13;101484.25;;;23.72;58.51
29825;BME280;16713;52.916;12.834;2023-06-22T09:28:39;101477.88;;;23.72;57.40
29825;BME280;16713;52.916;12.834;2023-06-22T09:31:06;101477.88;;;23.72;57.62
29825;BME280;16713;52.916;12.834;2023-06-22T09:33:33;101475.19;;;23.65;56.24
29825;BME280;16713;52.916;12.834;2023-06-22T09:35:59;101473.31;;;23.81;57.17
29825;BME280;16713;52.916;12.834;2023-06-22T09:38:26;101479.03;;;23.97;57.69
29825;BME280;16713;52.916;12.834;2023-06-22T09:40:52;101481.16;;;24.13;56.35
29825;BME280;16713;52.916;12.834;2023-06-22T09:43:19;101474.84;;;24.28;55.13
29825;BME280;16713;52.916;12.834;2023-06-22T09:45:45;101484.56;;;24.44;56.65
29825;BME280;16713;52.916;12.834;2023-06-22T09:48:12;101489.00;;;24.61;56.07
29825;BME280;16713;52.916;12.834;2023-06-22T09:50:39;101492.44;;;24.72;56.34
29825;BME280;16713;52.916;12.834;2023-06-22T09:53:05;101495.09;;;24.79;56.21
29825;BME280;16713;52.916;12.834;2023-06-22T09:55:32;101486.66;;;24.79;54.54
29825;BME280;16713;52.916;12.834;2023-06-22T09:57:58;101486.53;;;24.86;54.95
29825;BME280;16713;52.916;12.834;2023-06-22T10:00:25;101494.69;;;24.96;56.02
29825;BME280;16713;52.916;12.834;2023-06-22T10:02:53;101483.53;;;24.93;56.05
29825;BME280;16713;52.916;12.834;2023-06-22T10:05:23;101482.88;;;25.05;56.27
29825;BME280;16713;52.916;12.834;2023-06-22T10:07:50;101484.81;;;25.08;55.16
29825;BME280;16713;52.916;12.834;2023-06-22T10:10:16;101477.56;;;25.10;53.96
29825;BME280;16713;52.916;12.834;2023-06-22T10:12:48;101478.44;;;25.23;55.02
29825;BME280;16713;52.916;12.834;2023-06-22T10:15:15;101483.13;;;25.30;55.54
29825;BME280;16713;52.916;12.834;2023-06-22T10:17:42;101481.03;;;25.34;54.78
29825;BME280;16713;52.916;12.834;2023-06-22T10:20:09;101486.38;;;25.44;54.12
29825;BME280;16713;52.916;12.834;2023-06-22T10:22:39;101471.22;;;25.42;51.96
29825;BME280;16713;52.916;12.834;2023-06-22T10:25:06;101473.59;;;25.43;53.90
29825;BME280;16713;52.916;12.834;2023-06-22T10:27:33;101465.25;;;25.40;52.04
29825;BME280;16713;52.916;12.834;2023-06-22T10:30:00;101462.59;;;25.33;54.64
29825;BME280;16713;52.916;12.834;2023-06-22T10:32:27;101465.28;;;25.20;53.90
29825;BME280;16713;52.916;12.834;2023-06-22T10:34:54;101455.63;;;25.05;52.26
29825;BME280;16713;52.916;12.834;2023-06-22T10:37:24;101462.88;;;25.03;53.51
29825;BME280;16713;52.916;12.834;2023-06-22T10:39:51;101448.28;;;24.92;52.18
29825;BME280;16713;52.916;12.834;2023-06-22T10:42:17;101437.03;;;24.76;51.74
29825;BME280;16713;52.916;12.834;2023-06-22T10:44:44;101440.38;;;24.87;52.84
29825;BME280;16713;52.916;12.834;2023-06-22T10:47:11;101427.91;;;24.72;51.62
29825;BME280;16713;52.916;12.834;2023-06-22T10:49:38;101425.00;;;24.75;53.56
29825;BME280;16713;52.916;12.834;2023-06-22T10:52:07;101428.69;;;24.72;54.05
29825;BME280;16713;52.916;12.834;2023-06-22T10:54:34;101437.53;;;24.71;54.16
29825;BME280;16713;52.916;12.834;2023-06-22T10:57:02;101427.97;;;24.68;52.92
29825;BME280;16713;52.916;12.834;2023-06-22T10:59:29;101428.69;;;24.72;53.27
29825;BME280;16713;52.916;12.834;2023-06-22T11:01:56;101420.19;;;24.76;53.60
29825;BME280;16713;52.916;12.834;2023-06-22T11:04:23;101421.25;;;24.82;53.16
29825;BME280;16713;52.916;12.834;2023-06-22T11:09:29;101407.94;;;24.66;52.83
29825;BME280;16713;52.916;12.834;2023-06-22T11:14:39;101402.72;;;24.68;53.69
29825;BME280;16713;52.916;12.834;2023-06-22T11:17:05;101407.50;;;24.68;55.65
29825;BME280;16713;52.916;12.834;2023-06-22T11:19:32;101400.84;;;24.62;55.96
29825;BME280;16713;52.916;12.834;2023-06-22T11:21:59;101405.56;;;24.65;56.34
29825;BME280;16713;52.916;12.834;2023-06-22T11:24:25;101408.09;;;24.59;55.67
29825;BME280;16713;52.916;12.834;2023-06-22T11:26:52;101401.72;;;24.59;53.88
29825;BME280;16713;52.916;12.834;2023-06-22T11:29:18;101401.72;;;24.39;55.83
29825;BME280;16713;52.916;12.834;2023-06-22T11:32:03;101410.28;;;24.52;57.61
29825;BME280;16713;52.916;12.834;2023-06-22T11:34:29;101394.13;;;24.40;54.53
29825;BME280;16713;52.916;12.834;2023-06-22T11:36:56;101389.94;;;24.48;54.34
29825;BME280;16713;52.916;12.834;2023-06-22T11:39:23;101384.53;;;24.37;53.37
29825;BME280;16713;52.916;12.834;2023-06-22T11:42:06;101385.91;;;24.29;53.61
29825;BME280;16713;52.916;12.834;2023-06-22T11:44:33;101394.00;;;24.43;54.59
29825;BME280;16713;52.916;12.834;2023-06-22T11:47:00;101391.44;;;24.52;52.73
29825;BME280;16713;52.916;12.834;2023-06-22T11:49:27;101399.09;;;24.68;54.51
29825;BME280;16713;52.916;12.834;2023-06-22T11:51:54;101390.47;;;24.78;55.10
29825;BME280;16713;52.916;12.834;2023-06-22T11:54:20;101393.03;;;24.89;54.71
29825;BME280;16713;52.916;12.834;2023-06-22T11:56:47;101402.88;;;24.97;56.09
29825;BME280;16713;52.916;12.834;2023-06-22T11:59:13;101400.59;;;25.08;55.71
29825;BME280;16713;52.916;12.834;2023-06-22T12:01:40;101391.22;;;25.14;55.07
29825;BME280;16713;52.916;12.834;2023-06-22T12:04:06;101384.28;;;25.19;53.29
29825;BME280;16713;52.916;12.834;2023-06-22T12:06:35;101372.94;;;25.22;51.96
29825;BME280;16713;52.916;12.834;2023-06-22T12:09:04;101367.19;;;25.29;50.78
29825;BME280;16713;52.916;12.834;2023-06-22T12:11:31;101364.09;;;25.40;51.08
29825;BME280;16713;52.916;12.834;2023-06-22T12:13:57;101363.22;;;25.43;52.60
29825;BME280;16713;52.916;12.834;2023-06-22T12:16:28;101363.75;;;25.38;53.07
29825;BME280;16713;52.916;12.834;2023-06-22T12:18:55;101362.44;;;25.42;53.49
29825;BME280;16713;52.916;12.834;2023-06-22T12:21:21;101363.13;;;25.46;52.69
29825;BME280;16713;52.916;12.834;2023-06-22T12:23:48;101363.50;;;25.48;52.59
29825;BME280;16713;52.916;12.834;2023-06-22T12:26:14;101361.72;;;25.54;53.05
29825;BME280;16713;52.916;12.834;2023-06-22T12:28:41;101353.88;;;25.62;53.33
29825;BME280;16713;52.916;12.834;2023-06-22T12:31:07;101353.69;;;25.69;53.30
29825;BME280;16713;52.916;12.834;2023-06-22T12:33:34;101348.34;;;25.75;52.46
29825;BME280;16713;52.916;12.834;2023-06-22T12:36:01;101354.28;;;25.77;52.39
29825;BME280;16713;52.916;12.834;2023-06-22T12:38:27;101341.22;;;25.70;51.98
29825;BME280;16713;52.916;12.834;2023-06-22T12:40:54;101338.16;;;25.65;51.09
29825;BME280;16713;52.916;12.834;2023-06-22T12:43:20;101336.56;;;25.63;50.98
29825;BME280;16713;52.916;12.834;2023-06-22T12:45:47;101330.28;;;25.59;52.03
29825;BME280;16713;52.916;12.834;2023-06-22T12:48:13;101327.81;;;25.62;52.81
29825;BME280;16713;52.916;12.834;2023-06-22T12:50:40;101320.69;;;25.57;50.66
29825;BME280;16713;52.916;12.834;2023-06-22T12:53:06;101317.59;;;25.39;51.28
29825;BME280;16713;52.916;12.834;2023-06-22T12:55:33;101314.84;;;25.51;50.98
29825;BME280;16713;52.916;12.834;2023-06-22T12:58:00;101314.47;;;25.49;52.55
29825;BME280;16713;52.916;12.834;2023-06-22T13:00:26;101308.88;;;25.49;53.10
29825;BME280;16713;52.916;12.834;2023-06-22T13:02:53;101303.69;;;25.48;52.79
29825;BME280;16713;52.916;12.834;2023-06-22T13:05:22;101304.13;;;25.46;52.27
29825;BME280;16713;52.916;12.834;2023-06-22T13:07:48;101297.88;;;25.55;52.32
29825;BME280;16713;52.916;12.834;2023-06-22T13:10:15;101307.00;;;25.59;53.08
29825;BME280;16713;52.916;12.834;2023-06-22T13:12:41;101293.16;;;25.52;51.80
29825;BME280;16713;52.916;12.834;2023-06-22T13:15:08;101276.34;;;25.36;51.54
29825;BME280;16713;52.916;12.834;2023-06-22T13:17:35;101274.66;;;25.22;51.82
29825;BME280;16713;52.916;12.834;2023-06-22T13:20:01;101274.75;;;25.35;51.66
29825;BME280;16713;52.916;12.834;2023-06-22T13:22:35;101278.53;;;25.28;51.56
29825;BME280;16713;52.916;12.834;2023-06-22T13:25:10;101276.53;;;25.29;52.74
29825;BME280;16713;52.916;12.834;2023-06-22T13:27:40;101279.34;;;25.29;53.41
29825;BME280;16713;52.916;12.834;2023-06-22T13:30:08;101272.56;;;25.26;52.31
29825;BME280;16713;52.916;12.834;2023-06-22T13:32:39;101272.16;;;25.28;53.30
29825;BME280;16713;52.916;12.834;2023-06-22T13:35:09;101250.44;;;25.12;52.24
29825;BME280;16713;52.916;12.834;2023-06-22T13:37:36;101253.53;;;25.18;51.97
29825;BME280;16713;52.916;12.834;2023-06-22T13:40:04;101240.88;;;25.26;52.30
29825;BME280;16713;52.916;12.834;2023-06-22T13:42:33;101250.94;;;25.23;54.01
29825;BME280;16713;52.916;12.834;2023-06-22T13:45:00;101246.94;;;25.24;54.02
29825;BME280;16713;52.916;12.834;2023-06-22T13:47:26;101233.88;;;25.18;52.72
29825;BME280;16713;52.916;12.834;2023-06-22T13:49:56;101234.84;;;25.27;53.24
29825;BME280;16713;52.916;12.834;2023-06-22T13:52:24;101238.03;;;25.42;53.51
29825;BME280;16713;52.916;12.834;2023-06-22T13:54:51;101235.38;;;25.51;51.75
29825;BME280;16713;52.916;12.834;2023-06-22T13:57:17;101228.13;;;25.66;53.49
29825;BME280;16713;52.916;12.834;2023-06-22T13:59:44;101238.94;;;25.80;54.29
29825;BME280;16713;52.916;12.834;2023-06-22T14:02:10;101228.03;;;25.82;52.97
29825;BME280;16713;52.916;12.834;2023-06-22T14:04:38;101224.16;;;25.92;51.57
29825;BME280;16713;52.916;12.834;2023-06-22T14:07:04;101216.19;;;26.03;51.90
29825;BME280;16713;52.916;12.834;2023-06-22T14:09:31;101217.53;;;26.11;51.21
29825;BME280;16713;52.916;12.834;2023-06-22T14:12:02;101218.09;;;26.06;50.26
29825;BME280;16713;52.916;12.834;2023-06-22T14:14:29;101231.38;;;26.18;51.36
29825;BME280;16713;52.916;12.834;2023-06-22T14:16:56;101213.03;;;26.14;49.83
29825;BME280;16713;52.916;12.834;2023-06-22T14:19:22;101207.19;;;26.21;50.71
29825;BME280;16713;52.916;12.834;2023-06-22T14:21:49;101199.41;;;26.25;50.48
29825;BME280;16713;52.916;12.834;2023-06-22T14:24:15;101196.50;;;26.28;50.07
29825;BME280;16713;52.916;12.834;2023-06-22T14:26:42;101194.50;;;26.16;50.85
29825;BME280;16713;52.916;12.834;2023-06-22T14:29:08;101197.41;;;26.25;50.64
29825;BME280;16713;52.916;12.834;2023-06-22T14:31:35;101195.69;;;26.28;49.81
29825;BME280;16713;52.916;12.834;2023-06-22T14:34:01;101199.53;;;26.34;49.83
29825;BME280;16713;52.916;12.834;2023-06-22T14:36:29;101198.75;;;26.33;50.59
29825;BME280;16713;52.916;12.834;2023-06-22T14:38:56;101203.34;;;26.40;51.25
29825;BME280;16713;52.916;12.834;2023-06-22T14:41:22;101198.19;;;26.38;51.16
29825;BME280;16713;52.916;12.834;2023-06-22T14:43:50;101198.31;;;26.22;51.69
29825;BME280;16713;52.916;12.834;2023-06-22T14:46:19;101185.81;;;26.23;51.47
29825;BME280;16713;52.916;12.834;2023-06-22T14:48:47;101184.91;;;26.14;51.79
29825;BME280;16713;52.916;12.834;2023-06-22T14:51:14;101178.72;;;26.06;51.50
29825;BME280;16713;52.916;12.834;2023-06-22T14:53:46;101169.94;;;26.04;51.52
29825;BME280;16713;52.916;12.834;2023-06-22T14:56:13;101162.06;;;25.99;50.77
29825;BME280;16713;52.916;12.834;2023-06-22T14:58:41;101164.31;;;26.04;51.49
29825;BME280;16713;52.916;12.834;2023-06-22T15:01:13;101154.66;;;25.93;51.57
29825;BME280;16713;52.916;12.834;2023-06-22T15:03:39;101151.94;;;25.89;52.75
29825;BME280;16713;52.916;12.834;2023-06-22T15:06:08;101150.38;;;25.88;51.88
29825;BME280;16713;52.916;12.834;2023-06-22T15:08:37;101141.59;;;25.86;52.58
29825;BME280;16713;52.916;12.834;2023-06-22T15:11:04;101133.63;;;25.85;52.10
29825;BME280;16713;52.916;12.834;2023-06-22T15:13:31;101130.34;;;25.86;51.75
29825;BME280;16713;52.916;12.834;2023-06-22T15:16:02;101114.47;;;25.67;50.83
29825;BME280;16713;52.916;12.834;2023-06-22T15:18:30;101115.38;;;25.77;53.27
29825;BME280;16713;52.916;12.834;2023-06-22T15:20:56;101109.19;;;25.69;51.33
29825;BME280;16713;52.916;12.834;2023-06-22T15:23:24;101103.47;;;25.73;51.19
29825;BME280;16713;52.916;12.834;2023-06-22T15:25:52;101111.66;;;25.67;52.19
29825;BME280;16713;52.916;12.834;2023-06-22T15:28:18;101107.50;;;25.59;51.93
29825;BME280;16713;52.916;12.834;2023-06-22T15:30:45;101106.59;;;25.62;52.19
29825;BME280;16713;52.916;12.834;2023-06-22T15:33:14;101097.38;;;25.62;52.11
29825;BME280;16713;52.916;12.834;2023-06-22T15:35:41;101098.28;;;25.58;52.47
29825;BME280;16713;52.916;12.834;2023-06-22T15:38:08;101095.13;;;25.56;52.27
29825;BME280;16713;52.916;12.834;2023-06-22T15:40:34;101087.72;;;25.50;52.88
29825;BME280;16713;52.916;12.834;2023-06-22T15:43:01;101073.31;;;25.35;52.48
29825;BME280;16713;52.916;12.834;2023-06-22T15:45:28;101079.19;;;25.25;52.11
29825;BME280;16713;52.916;12.834;2023-06-22T15:47:54;101075.38;;;25.19;52.14
29825;BME280;16713;52.916;12.834;2023-06-22T15:50:21;101084.41;;;25.26;52.53
29825;BME280;16713;52.916;12.834;2023-06-22T15:52:48;101075.97;;;25.26;53.10
29825;BME280;16713;52.916;12.834;2023-06-22T15:55:18;101072.22;;;25.17;52.90
29825;BME280;16713;52.916;12.834;2023-06-22T15:57:45;101076.31;;;25.28;53.15
29825;BME280;16713;52.916;12.834;2023-06-22T16:00:14;101079.03;;;25.44;53.60
29825;BME280;16713;52.916;12.834;2023-06-22T16:02:46;101077.13;;;25.54;52.69
29825;BME280;16713;52.916;12.834;2023-06-22T16:05:13;101079.72;;;25.74;53.59
29825;BME280;16713;52.916;12.834;2023-06-22T16:07:40;101060.75;;;25.78;51.43
29825;BME280;16713;52.916;12.834;2023-06-22T16:10:07;101061.66;;;25.87;52.10
29825;BME280;16713;52.916;12.834;2023-06-22T16:12:35;101054.69;;;25.92;51.75
29825;BME280;16713;52.916;12.834;2023-06-22T16:15:02;101052.41;;;25.99;50.87
29825;BME280;16713;52.916;12.834;2023-06-22T16:17:29;101064.91;;;25.98;51.66
29825;BME280;16713;52.916;12.834;2023-06-22T16:19:56;101065.56;;;26.02;51.46
29825;BME280;16713;52.916;12.834;2023-06-22T16:22:24;101055.13;;;26.03;51.22
29825;BME280;16713;52.916;12.834;2023-06-22T16:24:51;101043.97;;;25.99;50.82
29825;BME280;16713;52.916;12.834;2023-06-22T16:27:18;101027.44;;;26.01;51.65
29825;BME280;16713;52.916;12.834;2023-06-22T16:29:45;101013.41;;;26.01;52.08
29825;BME280;16713;52.916;12.834;2023-06-22T16:32:11;101008.78;;;25.95;50.99
29825;BME280;16713;52.916;12.834;2023-06-22T16:34:38;101016.09;;;26.05;51.68
29825;BME280;16713;52.916;12.834;2023-06-22T16:37:05;101024.75;;;25.98;51.70
29825;BME280;16713;52.916;12.834;2023-06-22T16:39:31;101024.41;;;25.96;51.84
29825;BME280;16713;52.916;12.834;2023-06-22T16:41:58;101007.88;;;25.98;52.22
29825;BME280;16713;52.916;12.834;2023-06-22T16:44:24;101006.66;;;25.86;51.27
29825;BME280;16713;52.916;12.834;2023-06-22T16:46:51;101003.28;;;25.91;51.16
29825;BME280;16713;52.916;12.834;2023-06-22T16:49:18;101002.03;;;25.80;51.31
29825;BME280;16713;52.916;12.834;2023-06-22T16:51:44;100990.47;;;25.65;51.08
29825;BME280;16713;52.916;12.834;2023-06-22T16:54:12;100980.03;;;25.66;51.28
29825;BME280;16713;52.916;12.834;2023-06-22T16:56:39;100968.13;;;25.62;51.19
29825;BME280;16713;52.916;12.834;2023-06-22T16:59:05;100961.59;;;25.65;51.77
29825;BME280;16713;52.916;12.834;2023-06-22T17:01:34;100967.78;;;25.59;51.81
29825;BME280;16713;52.916;12.834;2023-06-22T17:04:06;100950.72;;;25.41;52.14
29825;BME280;16713;52.916;12.834;2023-06-22T17:06:33;100975.44;;;25.46;51.60
29825;BME280;16713;52.916;12.834;2023-06-22T17:09:00;100978.81;;;25.41;51.40
29825;BME280;16713;52.916;12.834;2023-06-22T17:11:29;100981.75;;;25.50;52.58
29825;BME280;16713;52.916;12.834;2023-06-22T17:13:59;100979.06;;;25.47;52.55
29825;BME280;16713;52.916;12.834;2023-06-22T17:16:25;100979.06;;;25.47;52.23
29825;BME280;16713;52.916;12.834;2023-06-22T17:18:55;100969.59;;;25.41;53.64
29825;BME280;16713;52.916;12.834;2023-06-22T17:21:27;100978.72;;;25.32;54.46
29825;BME280;16713;52.916;12.834;2023-06-22T17:23:56;100969.16;;;25.30;54.62
29825;BME280;16713;52.916;12.834;2023-06-22T17:26:25;100967.13;;;25.30;53.70
29825;BME280;16713;52.916;12.834;2023-06-22T17:28:53;100962.97;;;25.35;53.26
29825;BME280;16713;52.916;12.834;2023-06-22T17:31:38;100957.81;;;25.33;53.05
29825;BME280;16713;52.916;12.834;2023-06-22T17:34:07;100956.44;;;25.25;53.18
29825;BME280;16713;52.916;12.834;2023-06-22T17:36:40;100964.06;;;25.25;54.13
29825;BME280;16713;52.916;12.834;2023-06-22T17:39:12;100966.09;;;25.24;53.84
29825;BME280;16713;52.916;12.834;2023-06-22T17:41:42;100960.94;;;25.23;53.86
29825;BME280;16713;52.916;12.834;2023-06-22T17:44:09;100963.84;;;25.19;53.74
29825;BME280;16713;52.916;12.834;2023-06-22T17:46:36;100945.75;;;25.08;53.73
29825;BME280;16713;52.916;12.834;2023-06-22T17:49:08;100946.75;;;25.01;55.41
29825;BME280;16713;52.916;12.834;2023-06-22T17:51:36;100931.38;;;25.06;54.74
29825;BME280;16713;52.916;12.834;2023-06-22T17:54:05;100916.22;;;25.03;55.67
29825;BME280;16713;52.916;12.834;2023-06-22T17:56:32;100911.28;;;24.95;53.78
29825;BME280;16713;52.916;12.834;2023-06-22T17:58:59;100914.44;;;24.84;54.10
29825;BME280;16713;52.916;12.834;2023-06-22T18:04:10;100908.47;;;24.82;53.82
29825;BME280;16713;52.916;12.834;2023-06-22T18:06:41;100910.38;;;24.85;53.80
29825;BME280;16713;52.916;12.834;2023-06-22T18:09:12;100909.25;;;24.95;54.07
29825;BME280;16713;52.916;12.834;2023-06-22T18:11:45;100913.53;;;25.00;53.47
29825;BME280;16713;52.916;12.834;2023-06-22T18:14:13;100907.91;;;25.00;53.50
29825;BME280;16713;52.916;12.834;2023-06-22T18:16:43;100898.59;;;25.03;53.49
29825;BME280;16713;52.916;12.834;2023-06-22T18:19:12;100889.16;;;25.09;53.20
29825;BME280;16713;52.916;12.834;2023-06-22T18:21:39;100891.16;;;25.09;53.15
29825;BME280;16713;52.916;12.834;2023-06-22T18:24:06;100882.53;;;25.03;53.54
29825;BME280;16713;52.916;12.834;2023-06-22T18:26:33;100884.00;;;25.08;52.88
29825;BME280;16713;52.916;12.834;2023-06-22T18:29:00;100874.78;;;25.07;53.24
29825;BME280;16713;52.916;12.834;2023-06-22T18:31:26;100880.84;;;25.06;52.70
29825;BME280;16713;52.916;12.834;2023-06-22T18:33:55;100886.81;;;25.08;53.93
29825;BME280;16713;52.916;12.834;2023-06-22T18:36:36;100891.63;;;25.07;52.89
29825;BME280;16713;52.916;12.834;2023-06-22T18:39:04;100902.41;;;25.09;53.17
29825;BME280;16713;52.916;12.834;2023-06-22T18:44:03;100888.94;;;25.04;53.36
29825;BME280;16713;52.916;12.834;2023-06-22T18:46:34;100885.56;;;25.09;52.94
29825;BME280;16713;52.916;12.834;2023-06-22T18:49:12;100882.88;;;25.05;52.79
29825;BME280;16713;52.916;12.834;2023-06-22T18:54:25;100869.63;;;24.93;53.12
29825;BME280;16713;52.916;12.834;2023-06-22T18:56:57;100874.34;;;24.84;53.49
29825;BME280;16713;52.916;12.834;2023-06-22T18:59:43;100869.28;;;24.79;53.33
29825;BME280;16713;52.916;12.834;2023-06-22T19:15:39;100857.88;;;24.45;54.98
29825;BME280;16713;52.916;12.834;2023-06-22T19:18:22;100851.13;;;24.30;54.46
29825;BME280;16713;52.916;12.834;2023-06-22T19:20:59;100859.00;;;24.35;54.25
29825;BME280;16713;52.916;12.834;2023-06-22T19:23:33;100857.47;;;24.17;55.53
29825;BME280;16713;52.916;12.834;2023-06-22T19:26:05;100861.88;;;24.18;55.98
29825;BME280;16713;52.916;12.834;2023-06-22T19:28:32;100872.38;;;24.14;55.86
29825;BME280;16713;52.916;12.834;2023-06-22T19:31:00;100873.75;;;23.94;57.91
29825;BME280;16713;52.916;12.834;2023-06-22T19:33:28;100881.31;;;23.81;58.76
29825;BME280;16713;52.916;12.834;2023-06-22T19:35:56;100882.44;;;23.83;58.42
29825;BME280;16713;52.916;12.834;2023-06-22T19:38:24;100884.72;;;23.72;60.28
29825;BME280;16713;52.916;12.834;2023-06-22T19:40:53;100880.03;;;23.53;60.26
29825;BME280;16713;52.916;12.834;2023-06-22T19:43:20;100875.38;;;23.47;61.25
29825;BME280;16713;52.916;12.834;2023-06-22T19:45:48;100874.84;;;23.36;62.61
29825;BME280;16713;52.916;12.834;2023-06-22T19:48:15;100873.63;;;23.21;62.97
29825;BME280;16713;52.916;12.834;2023-06-22T19:50:42;100873.72;;;23.01;63.39
29825;BME280;16713;52.916;12.834;2023-06-22T19:53:13;100869.66;;;22.86;63.76
29825;BME280;16713;52.916;12.834;2023-06-22T19:55:41;100864.88;;;22.67;65.55
29825;BME280;16713;52.916;12.834;2023-06-22T19:58:13;100863.28;;;22.30;66.44
29825;BME280;16713;52.916;12.834;2023-06-22T20:00:40;100861.72;;;22.29;66.29
29825;BME280;16713;52.916;12.834;2023-06-22T20:03:15;100855.91;;;22.20;67.03
29825;BME280;16713;52.916;12.834;2023-06-22T20:05:43;100846.41;;;22.14;67.33
29825;BME280;16713;52.916;12.834;2023-06-22T20:08:15;100840.91;;;22.11;67.13
29825;BME280;16713;52.916;12.834;2023-06-22T20:10:43;100838.53;;;21.90;67.58
29825;BME280;16713;52.916;12.834;2023-06-22T20:13:19;100848.63;;;21.84;68.14
29825;BME280;16713;52.916;12.834;2023-06-22T20:15:49;100858.28;;;21.79;68.52
29825;BME280;16713;52.916;12.834;2023-06-22T20:18:15;100866.50;;;21.86;68.91
29825;BME280;16713;52.916;12.834;2023-06-22T20:20:47;100907.00;;;21.98;69.95
29825;BME280;16713;52.916;12.834;2023-06-22T20:23:21;100954.75;;;22.07;70.60
29825;BME280;16713;52.916;12.834;2023-06-22T20:25:49;100992.63;;;22.08;71.28
29825;BME280;16713;52.916;12.834;2023-06-22T20:28:18;100988.97;;;22.11;71.57
29825;BME280;16713;52.916;12.834;2023-06-22T20:31:07;101010.09;;;22.12;71.46
29825;BME280;16713;52.916;12.834;2023-06-22T20:33:36;101010.91;;;22.12;71.05
29825;BME280;16713;52.916;12.834;2023-06-22T20:36:05;101030.78;;;22.18;70.32
29825;BME280;16713;52.916;12.834;2023-06-22T20:38:36;101034.78;;;22.17;70.13
29825;BME280;16713;52.916;12.834;2023-06-22T20:41:03;101054.25;;;22.24;69.91
29825;BME280;16713;52.916;12.834;2023-06-22T20:43:33;101067.13;;;22.18;68.74
29825;BME280;16713;52.916;12.834;2023-06-22T20:46:00;101065.88;;;21.96;69.85
29825;BME280;16713;52.916;12.834;2023-06-22T20:48:26;101071.66;;;22.08;70.11
29825;BME280;16713;52.916;12.834;2023-06-22T20:51:05;101052.13;;;21.82;72.03
29825;BME280;16713;52.916;12.834;2023-06-22T20:53:32;101048.47;;;22.11;71.70
29825;BME280;16713;52.916;12.834;2023-06-22T20:55:58;101037.94;;;21.96;72.07
29825;BME280;16713;52.916;12.834;2023-06-22T20:58:25;101037.81;;;22.03;72.29
29825;BME280;16713;52.916;12.834;2023-06-22T21:00:51;101041.22;;;21.91;72.88
29825;BME280;16713;52.916;12.834;2023-06-22T21:03:18;101042.56;;;21.83;73.30
29825;BME280;16713;52.916;12.834;2023-06-22T21:05:45;101035.94;;;21.73;74.20
29825;BME280;16713;52.916;12.834;2023-06-22T21:08:12;101027.56;;;21.73;74.13
29825;BME280;16713;52.916;12.834;2023-06-22T21:10:39;101025.81;;;21.83;73.54
29825;BME280;16713;52.916;12.834;2023-06-22T21:13:05;101016.31;;;21.50;74.76
29825;BME280;16713;52.916;12.834;2023-06-22T21:15:32;101017.53;;;21.49;75.17
29825;BME280;16713;52.916;12.834;2023-06-22T21:17:59;101025.03;;;21.25;75.76
29825;BME280;16713;52.916;12.834;2023-06-22T21:20:26;101029.22;;;21.40;75.85
29825;BME280;16713;52.916;12.834;2023-06-22T21:22:52;101028.78;;;21.42;75.76
29825;BME280;16713;52.916;12.834;2023-06-22T21:25:19;101030.91;;;21.34;76.34